Shohomaru — JD2043 — position and weather

sailwx.info

Track history (hours):
 
Tides and Currents Weather Stations Pressure Air Temp Water Temp Dewpoint Dewpoint Depression Visibility Wind Speed Wind Dir Waves Ship Positions

Shohomaru

Last reported at 2017-Dec-16 16:30 UTC. Time now 2017-Dec-16 19:00 UTC.
Position N 34°25' E 134°18'.

Length 68 m; draft 4.3 m.

Type: Tanker. MMSI: 431401999.

Date/timePositionNaut miles runAvg speedWind from/ knotsBaromVisibWave heightAir tempDewpointWater temp
2017-Dec-16 16:30N 34°25' E 134°18'612.1
2017-Dec-16 16:00N 34°26' E 134°25'612.3
2017-Dec-16 15:30N 34°28' E 134°32'611.8
2017-Dec-16 15:00N 34°30' E 134°39'611.4
2017-Dec-16 14:30N 34°33' E 134°45'611.2
2017-Dec-16 14:00N 34°35' E 134°52'510.7
2017-Dec-16 13:30N 34°37' E 134°58'5 9.9
2017-Dec-16 13:00N 34°36' E 135°03'611.3
2017-Dec-16 12:31N 34°35' E 135°10'611.6
2017-Dec-16 12:00N 34°34' E 135°17'510.4
2017-Dec-16 11:31N 34°34' E 135°23'2 4.1
2017-Dec-16 11:00N 34°33' E 135°26'0 0.0
2017-Dec-16 10:30N 34°33' E 135°26'0 0.0
2017-Dec-16 10:01N 34°33' E 135°26'0 0.0
2017-Dec-16 09:30N 34°33' E 135°26'0 0.0
2017-Dec-16 09:00N 34°33' E 135°26'0 0.0
2017-Dec-16 08:31N 34°33' E 135°26'0 0.0
2017-Dec-16 08:00N 34°33' E 135°26'0 0.0
2017-Dec-16 07:30N 34°33' E 135°26'0 0.0
2017-Dec-16 07:01N 34°33' E 135°26'0 0.0
2017-Dec-16 06:30N 34°33' E 135°26'0 0.0
2017-Dec-16 06:01N 34°33' E 135°26'2 4.8
2017-Dec-16 05:30N 34°33' E 135°23'612.3
2017-Dec-16 05:01N 34°30' E 135°17'612.2
2017-Dec-16 04:30N 34°26' E 135°11'611.8
2017-Dec-16 04:01N 34°21' E 135°06'611.3
2017-Dec-16 03:30N 34°16' E 135°03'611.6
2017-Dec-16 03:00N 34°12' E 135°07'510.2
2017-Dec-16 02:31N 34°09' E 135°12'0 0.1
2017-Dec-16 02:00N 34°09' E 135°12'0 0.0
2017-Dec-16 01:30N 34°09' E 135°12'0 0.0
2017-Dec-16 01:00N 34°09' E 135°12'0 0.0
2017-Dec-16 00:27N 34°09' E 135°12'0 0.1
2017-Dec-15 23:54N 34°09' E 135°12'1 1.9
2017-Dec-15 23:31N 34°09' E 135°11'1 2.8
2017-Dec-15 23:00N 34°09' E 135°10'0 0.0
2017-Dec-15 22:30N 34°09' E 135°10'0 0.0
2017-Dec-15 21:57N 34°09' E 135°10'0 0.1
2017-Dec-15 21:30N 34°09' E 135°10'0 0.0
2017-Dec-15 21:00N 34°09' E 135°10'2 5.0
2017-Dec-15 20:30N 34°09' E 135°07'612.6
2017-Dec-15 20:00N 34°05' E 135°01'613.0
2017-Dec-15 19:30N 33°58' E 135°02'99 8.2
2017-Dec-15 07:30N 34°40' E 136°51'813.1
2017-Dec-15 06:56N 34°46' E 136°46'512.9
2017-Dec-15 06:30N 34°51' E 136°43'612.5
2017-Dec-15 06:00N 34°57' E 136°40'1 2.6
2017-Dec-15 05:30N 34°56' E 136°39'0 0.0
2017-Dec-15 05:00N 34°56' E 136°39'0 0.1
2017-Dec-15 04:30N 34°56' E 136°39'0 0.1
2017-Dec-15 04:00N 34°56' E 136°39'0 0.0
2017-Dec-15 02:30N 34°56' E 136°39'0 0.0
2017-Dec-15 01:00N 34°56' E 136°39'1 2.3
2017-Dec-15 00:30N 34°57' E 136°40'24 4.0
2017-Dec-14 18:25N 34°37' E 136°56'611.3
2017-Dec-14 17:52N 34°33' E 137°03'612.0
2017-Dec-14 17:22N 34°33' E 137°10'411.8
2017-Dec-14 17:00N 34°34' E 137°15'2411.8
2017-Dec-14 14:55N 34°34' E 137°45'511.6
2017-Dec-14 14:28N 34°34' E 137°51'1511.5
2017-Dec-14 13:11N 34°33' E 138°09'211.3
2017-Dec-14 12:59N 34°33' E 138°12'611.8
2017-Dec-14 12:30N 34°33' E 138°19'712.1
2017-Dec-14 11:57N 34°34' E 138°27'712.0
2017-Dec-14 11:23N 34°35' E 138°35'512.2
2017-Dec-14 11:00N 34°35' E 138°41'611.1
2017-Dec-14 10:30N 34°35' E 138°47'611.8
2017-Dec-14 10:00N 34°36' E 138°55'611.2
2017-Dec-14 09:30N 34°39' E 139°00'611.5
2017-Dec-14 09:00N 34°42' E 139°06'510.7
2017-Dec-14 08:31N 34°45' E 139°11'611.4
2017-Dec-14 08:01N 34°49' E 139°16'611.6
2017-Dec-14 07:30N 34°53' E 139°22'712.0
2017-Dec-14 06:55N 34°57' E 139°28'511.5
2017-Dec-14 06:30N 35°01' E 139°32'611.7
2017-Dec-14 06:01N 35°05' E 139°38'612.2
2017-Dec-14 05:30N 35°09' E 139°43'611.7
2017-Dec-14 05:00N 35°14' E 139°46'612.3
2017-Dec-14 04:31N 35°19' E 139°43'611.4
2017-Dec-14 04:00N 35°25' E 139°44'612.4
2017-Dec-14 03:30N 35°29' E 139°50'612.4
2017-Dec-14 03:00N 35°32' E 139°57'611.8
2017-Dec-14 02:30N 35°35' E 140°03'2 3.8
2017-Dec-14 02:01N 35°36' E 140°05'0 0.0
2017-Dec-14 01:31N 35°36' E 140°05'0 0.1
2017-Dec-14 01:00N 35°36' E 140°05'0 0.1
2017-Dec-14 00:28N 35°36' E 140°05'0 0.0
2017-Dec-13 23:58N 35°36' E 140°05'0 0.0
2017-Dec-13 23:28N 35°36' E 140°05'0 0.6
2017-Dec-13 23:01N 35°36' E 140°05'3 6.6
2017-Dec-13 22:31N 35°35' E 140°01'0 0.1
2017-Dec-13 21:53N 35°35' E 140°01'0 0.0
2017-Dec-13 21:29N 35°35' E 140°01'0 0.1
2017-Dec-13 20:59N 35°35' E 140°01'0 0.1
2017-Dec-13 20:29N 35°35' E 140°01'0 0.0
2017-Dec-13 19:59N 35°35' E 140°01'0 0.1
2017-Dec-13 19:29N 35°35' E 140°01'0 0.0
2017-Dec-13 18:59N 35°35' E 140°01'0 0.0
2017-Dec-13 18:29N 35°35' E 140°01'0 0.0
2017-Dec-13 17:59N 35°35' E 140°01'0 0.0
2017-Dec-13 17:29N 35°35' E 140°01'0 0.0
2017-Dec-13 16:59N 35°35' E 140°01'0 0.0
2017-Dec-13 16:29N 35°35' E 140°01'0 0.0
2017-Dec-13 15:59N 35°35' E 140°01'0 0.0
2017-Dec-13 15:29N 35°35' E 140°01'0 0.0
2017-Dec-13 14:59N 35°35' E 140°01'0 0.0
2017-Dec-13 14:29N 35°35' E 140°01'0 0.0
2017-Dec-13 13:59N 35°35' E 140°01'0 0.0
2017-Dec-13 13:29N 35°35' E 140°01'0 0.0
2017-Dec-13 12:59N 35°35' E 140°01'0 0.0
2017-Dec-13 12:29N 35°35' E 140°01'0 0.0
2017-Dec-13 11:59N 35°35' E 140°01'0 0.0
2017-Dec-13 11:29N 35°35' E 140°01'0 0.0
2017-Dec-13 10:59N 35°35' E 140°01'0 0.0
2017-Dec-13 10:29N 35°35' E 140°01'0 0.0
2017-Dec-13 09:59N 35°35' E 140°01'0 0.0
2017-Dec-13 09:29N 35°35' E 140°01'0 0.0
2017-Dec-13 08:59N 35°35' E 140°01'0 0.0
2017-Dec-13 08:29N 35°35' E 140°01'0 0.0
2017-Dec-13 07:59N 35°35' E 140°01'0 0.0
2017-Dec-13 07:28N 35°35' E 140°01'3 6.8
2017-Dec-13 07:01N 35°32' E 139°60'4 2.9
2017-Dec-13 05:39N 35°28' E 140°01'0 0.0
2017-Dec-13 05:29N 35°28' E 140°01'0 0.0
2017-Dec-13 03:50N 35°28' E 140°01'0 0.0
2017-Dec-13 03:21N 35°28' E 140°01'2 4.4
2017-Dec-13 03:00N 35°30' E 140°00'612.6
2017-Dec-13 02:31N 35°35' E 140°04'1 1.8
2017-Dec-13 02:01N 35°36' E 140°05'0 0.0
2017-Dec-13 01:31N 35°36' E 140°05'0 0.0
2017-Dec-13 01:00N 35°36' E 140°05'0 0.0
2017-Dec-13 00:31N 35°36' E 140°05'0 0.0
2017-Dec-13 00:01N 35°36' E 140°05'0 0.0
2017-Dec-12 23:31N 35°36' E 140°05'0 0.8
2017-Dec-12 23:01N 35°36' E 140°04'1 1.1
2017-Dec-12 22:30N 35°36' E 140°04'0 0.0
2017-Dec-12 22:00N 35°36' E 140°04'0 0.0
2017-Dec-12 21:30N 35°36' E 140°04'0 0.8
2017-Dec-12 21:00N 35°36' E 140°04'2 3.4
2017-Dec-12 20:28N 35°36' E 140°06'0 0.0
2017-Dec-12 19:58N 35°36' E 140°06'0 0.0
2017-Dec-12 19:28N 35°36' E 140°06'0 0.0
2017-Dec-12 18:58N 35°36' E 140°06'0 0.0
2017-Dec-12 18:28N 35°36' E 140°06'0 0.0
2017-Dec-12 17:58N 35°36' E 140°06'0 0.0
2017-Dec-12 17:28N 35°36' E 140°06'0 0.0
2017-Dec-12 16:58N 35°36' E 140°06'0 0.0
2017-Dec-12 16:28N 35°36' E 140°06'0 0.0
2017-Dec-12 15:58N 35°36' E 140°06'0 0.0
2017-Dec-12 15:28N 35°36' E 140°06'0 0.0
2017-Dec-12 14:58N 35°36' E 140°06'0 0.0
2017-Dec-12 14:28N 35°36' E 140°06'0 0.0
2017-Dec-12 13:58N 35°36' E 140°06'0 0.0
2017-Dec-12 13:28N 35°36' E 140°06'0 0.0
2017-Dec-12 12:58N 35°36' E 140°06'0 0.0
2017-Dec-12 12:28N 35°36' E 140°06'0 0.0
2017-Dec-12 11:58N 35°36' E 140°06'0 0.0
2017-Dec-12 11:28N 35°36' E 140°06'0 0.0
2017-Dec-12 10:58N 35°36' E 140°06'0 0.0
2017-Dec-12 10:28N 35°36' E 140°06'0 0.0
2017-Dec-12 09:58N 35°36' E 140°06'0 0.0
2017-Dec-12 09:28N 35°36' E 140°06'0 0.0
2017-Dec-12 08:58N 35°36' E 140°06'0 0.0
2017-Dec-12 08:28N 35°36' E 140°06'0 0.0
2017-Dec-12 07:58N 35°36' E 140°06'0 0.0
2017-Dec-12 07:28N 35°36' E 140°06'0 0.0
2017-Dec-12 06:58N 35°36' E 140°06'0 0.0
2017-Dec-12 06:28N 35°36' E 140°06'0 0.0
2017-Dec-12 05:58N 35°36' E 140°06'0 0.0
2017-Dec-12 05:28N 35°36' E 140°06'0 0.0
2017-Dec-12 04:58N 35°36' E 140°06'0 0.0
2017-Dec-12 04:25N 35°36' E 140°06'0 0.0
2017-Dec-12 03:58N 35°36' E 140°06'0 0.0
2017-Dec-12 03:28N 35°36' E 140°06'0 0.0
2017-Dec-12 02:55N 35°36' E 140°06'0 0.0
2017-Dec-12 02:28N 35°36' E 140°06'0 0.0
2017-Dec-12 01:58N 35°36' E 140°06'0 0.0
2017-Dec-12 01:28N 35°36' E 140°06'0 0.0
2017-Dec-12 01:01N 35°36' E 140°06'0 0.0
2017-Dec-12 00:30N 35°36' E 140°06'0 0.0
2017-Dec-12 00:00N 35°36' E 140°06'0 0.0
2017-Dec-11 23:31N 35°36' E 140°06'0 0.0
2017-Dec-11 23:00N 35°36' E 140°06'0 0.0
2017-Dec-11 22:31N 35°36' E 140°06'0 0.0
2017-Dec-11 22:01N 35°36' E 140°06'0 0.0
2017-Dec-11 21:31N 35°36' E 140°06'0 0.0
2017-Dec-11 21:00N 35°36' E 140°06'0 0.0
2017-Dec-11 20:30N 35°36' E 140°06'0 0.0
2017-Dec-11 20:00N 35°36' E 140°06'0 0.0
2017-Dec-11 19:30N 35°36' E 140°06'0 0.0
2017-Dec-11 19:00N 35°36' E 140°06'0 0.0
2017-Dec-11 18:30N 35°36' E 140°06'0 0.0
2017-Dec-11 18:00N 35°36' E 140°06'0 0.0
2017-Dec-11 17:31N 35°36' E 140°06'0 0.0
2017-Dec-11 17:00N 35°36' E 140°06'0 0.0
2017-Dec-11 16:31N 35°36' E 140°06'0 0.0
2017-Dec-11 16:00N 35°36' E 140°06'0 0.0
2017-Dec-11 15:31N 35°36' E 140°06'0 0.0
2017-Dec-11 15:01N 35°36' E 140°06'0 0.0
2017-Dec-11 14:30N 35°36' E 140°06'0 0.0
2017-Dec-11 14:01N 35°36' E 140°06'0 0.0
2017-Dec-11 13:31N 35°36' E 140°06'0 0.0
2017-Dec-11 13:01N 35°36' E 140°06'0 0.0
2017-Dec-11 12:31N 35°36' E 140°06'0 0.0
2017-Dec-11 12:01N 35°36' E 140°06'0 0.0
2017-Dec-11 11:30N 35°36' E 140°06'0 0.0
2017-Dec-11 11:00N 35°36' E 140°06'0 0.0
2017-Dec-11 10:31N 35°36' E 140°06'0 0.0
2017-Dec-11 10:01N 35°36' E 140°06'0 0.0
2017-Dec-11 09:31N 35°36' E 140°06'0 0.0
2017-Dec-11 09:01N 35°36' E 140°06'0 0.0
2017-Dec-11 08:31N 35°36' E 140°06'0 0.0
2017-Dec-11 08:00N 35°36' E 140°06'0 0.0
2017-Dec-11 07:31N 35°36' E 140°06'0 0.0
2017-Dec-11 07:01N 35°36' E 140°06'0 0.0
2017-Dec-11 06:30N 35°36' E 140°06'0 0.0
2017-Dec-11 06:01N 35°36' E 140°06'0 0.0
2017-Dec-11 05:30N 35°36' E 140°06'0 0.0
2017-Dec-11 05:01N 35°36' E 140°06'2 3.2
2017-Dec-11 04:31N 35°35' E 140°04'510.3
2017-Dec-11 04:00N 35°32' E 139°60'612.4
2017-Dec-11 03:30N 35°29' E 139°53'612.8
2017-Dec-11 03:00N 35°26' E 139°46'611.1
2017-Dec-11 02:31N 35°24' E 139°40'0 0.5
2017-Dec-11 02:01N 35°24' E 139°40'0 0.0
2017-Dec-11 01:30N 35°24' E 139°40'0 0.0
2017-Dec-11 01:00N 35°24' E 139°40'0 0.0
2017-Dec-11 00:30N 35°24' E 139°40'0 0.0
2017-Dec-11 00:00N 35°24' E 139°40'0 0.0
2017-Dec-10 23:30N 35°24' E 139°40'2 3.8
2017-Dec-10 23:00N 35°23' E 139°40'0 0.5
2017-Dec-10 22:29N 35°22' E 139°40'0 0.1
2017-Dec-10 21:56N 35°22' E 139°40'0 0.0
2017-Dec-10 21:26N 35°22' E 139°40'0 0.0
2017-Dec-10 20:59N 35°22' E 139°40'0 0.0
2017-Dec-10 20:29N 35°22' E 139°40'0 0.1
2017-Dec-10 19:59N 35°22' E 139°40'0 0.1
2017-Dec-10 19:29N 35°22' E 139°40'0 0.0
2017-Dec-10 18:59N 35°22' E 139°40'0 0.1
2017-Dec-10 18:30N 35°22' E 139°40'5 9.6
2017-Dec-10 18:01N 35°19' E 139°44'510.8
2017-Dec-10 17:30N 35°14' E 139°47'611.7
2017-Dec-10 17:00N 35°08' E 139°45'611.9
2017-Dec-10 16:30N 35°03' E 139°41'612.5
2017-Dec-10 16:00N 34°59' E 139°35'813.9
2017-Dec-10 15:26N 34°55' E 139°27'614.1
2017-Dec-10 15:00N 34°51' E 139°21'713.4
2017-Dec-10 14:29N 34°46' E 139°15'712.6
2017-Dec-10 13:53N 34°41' E 139°08'411.3
2017-Dec-10 13:30N 34°39' E 139°04'611.9
2017-Dec-10 13:00N 34°36' E 138°58'712.6
2017-Dec-10 12:29N 34°35' E 138°50'712.3
2017-Dec-10 11:55N 34°34' E 138°41'1512.5
2017-Dec-10 10:44N 34°33' E 138°23'612.3
2017-Dec-10 10:16N 34°33' E 138°16'613.0
2017-Dec-10 09:49N 34°33' E 138°09'16110.4
2017-Dec-09 18:13N 33°53' E 134°60'412.3
2017-Dec-09 17:55N 33°56' E 134°57'612.6
2017-Dec-09 17:28N 34°01' E 134°53'612.6
2017-Dec-09 17:00N 34°05' E 134°48'712.7
2017-Dec-09 16:29N 34°10' E 134°43'611.6
2017-Dec-09 15:59N 34°15' E 134°39'511.5
2017-Dec-09 15:30N 34°17' E 134°33'611.1
2017-Dec-09 14:58N 34°19' E 134°26'1310.7
2017-Dec-09 13:48N 34°24' E 134°12'7610.8
2017-Dec-09 06:48N 34°00' E 132°45'412.8
2017-Dec-09 06:30N 33°57' E 132°43'6 1.6
2017-Dec-09 02:59N 33°51' E 132°42'0 0.0
2017-Dec-09 02:16N 33°51' E 132°42'0 0.0
2017-Dec-09 02:00N 33°51' E 132°42'0 0.0
2017-Dec-09 00:35N 33°51' E 132°42'0 0.0
2017-Dec-09 00:28N 33°51' E 132°42'0 0.0
2017-Dec-08 23:42N 33°51' E 132°42'0 0.0
2017-Dec-08 23:25N 33°51' E 132°42'1 2.9
2017-Dec-08 23:00N 33°52' E 132°41'1 0.8
2017-Dec-08 21:39N 33°52' E 132°40'0 0.0
2017-Dec-08 21:27N 33°52' E 132°40'0 0.0
2017-Dec-08 19:06N 33°52' E 132°40'0 0.0
2017-Dec-08 18:57N 33°52' E 132°40'0 0.0
2017-Dec-08 09:51N 33°52' E 132°40'0 0.0
2017-Dec-08 05:37N 33°52' E 132°40'0 0.2
2017-Dec-08 05:31N 33°52' E 132°40'3 7.0
2017-Dec-08 05:00N 33°55' E 132°42'611.3
2017-Dec-08 04:30N 33°60' E 132°45'5 1.0
2017-Dec-07 23:04N 34°03' E 132°50'0 0.1
2017-Dec-07 23:00N 34°03' E 132°50'79 5.9
2017-Dec-07 09:33N 34°22' E 134°23'111.7
2017-Dec-07 09:29N 34°22' E 134°23'712.3
2017-Dec-07 08:57N 34°19' E 134°31'613.0
2017-Dec-07 08:28N 34°16' E 134°38'511.0
2017-Dec-07 07:59N 34°12' E 134°42'3 6.0
2017-Dec-07 07:27N 34°10' E 134°45'3 6.4
2017-Dec-07 07:00N 34°09' E 134°48'4 8.8
2017-Dec-07 06:31N 34°09' E 134°53'5 9.2
2017-Dec-07 06:00N 34°09' E 134°58'5 9.0
2017-Dec-07 05:30N 34°09' E 135°04'510.3
2017-Dec-07 05:00N 34°09' E 135°10'2 3.2
2017-Dec-07 04:30N 34°09' E 135°12'0 0.0
2017-Dec-07 04:00N 34°09' E 135°12'0 0.0
2017-Dec-07 03:30N 34°09' E 135°12'0 0.0
2017-Dec-07 03:00N 34°09' E 135°12'0 0.0
2017-Dec-07 02:30N 34°09' E 135°12'0 0.6
2017-Dec-07 02:00N 34°09' E 135°12'1 1.4
2017-Dec-07 01:30N 34°09' E 135°11'5 9.7
2017-Dec-07 01:00N 34°12' E 135°07'1 2.6
2017-Dec-07 00:30N 34°13' E 135°09'0 0.0
2017-Dec-07 00:00N 34°13' E 135°09'0 0.0
2017-Dec-06 23:31N 34°13' E 135°09'0 0.0
2017-Dec-06 23:00N 34°13' E 135°09'0 0.0
2017-Dec-06 22:30N 34°13' E 135°09'0 0.0
2017-Dec-06 22:01N 34°13' E 135°09'0 0.0
2017-Dec-06 21:30N 34°13' E 135°09'0 0.0
2017-Dec-06 21:00N 34°13' E 135°09'  
Track history (hours):
 
Tides and Currents Weather Stations Pressure Air Temp Water Temp Dewpoint Dewpoint Depression Visibility Wind Speed Wind Dir Waves Ship Positions

Shohomaru

Last reported at 2017-Dec-16 16:30 UTC. Time now 2017-Dec-16 19:00 UTC.
Position N 34°25' E 134°18'.

Length 68 m; draft 4.3 m.

Type: Tanker. MMSI: 431401999.

Date/timePositionNaut miles runAvg speedWind from/ knotsBaromVisibWave heightAir tempDewpointWater temp
2017-Dec-16 16:30N 34°25' E 134°18'612.1
2017-Dec-16 16:00N 34°26' E 134°25'612.3
2017-Dec-16 15:30N 34°28' E 134°32'611.8
2017-Dec-16 15:00N 34°30' E 134°39'611.4
2017-Dec-16 14:30N 34°33' E 134°45'611.2
2017-Dec-16 14:00N 34°35' E 134°52'510.7
2017-Dec-16 13:30N 34°37' E 134°58'5 9.9
2017-Dec-16 13:00N 34°36' E 135°03'611.3
2017-Dec-16 12:31N 34°35' E 135°10'611.6
2017-Dec-16 12:00N 34°34' E 135°17'510.4
2017-Dec-16 11:31N 34°34' E 135°23'2 4.1
2017-Dec-16 11:00N 34°33' E 135°26'0 0.0
2017-Dec-16 10:30N 34°33' E 135°26'0 0.0
2017-Dec-16 10:01N 34°33' E 135°26'0 0.0
2017-Dec-16 09:30N 34°33' E 135°26'0 0.0
2017-Dec-16 09:00N 34°33' E 135°26'0 0.0
2017-Dec-16 08:31N 34°33' E 135°26'0 0.0
2017-Dec-16 08:00N 34°33' E 135°26'0 0.0
2017-Dec-16 07:30N 34°33' E 135°26'0 0.0
2017-Dec-16 07:01N 34°33' E 135°26'0 0.0
2017-Dec-16 06:30N 34°33' E 135°26'0 0.0
2017-Dec-16 06:01N 34°33' E 135°26'2 4.8
2017-Dec-16 05:30N 34°33' E 135°23'612.3
2017-Dec-16 05:01N 34°30' E 135°17'612.2
2017-Dec-16 04:30N 34°26' E 135°11'611.8
2017-Dec-16 04:01N 34°21' E 135°06'611.3
2017-Dec-16 03:30N 34°16' E 135°03'611.6
2017-Dec-16 03:00N 34°12' E 135°07'510.2
2017-Dec-16 02:31N 34°09' E 135°12'0 0.1
2017-Dec-16 02:00N 34°09' E 135°12'0 0.0
2017-Dec-16 01:30N 34°09' E 135°12'0 0.0
2017-Dec-16 01:00N 34°09' E 135°12'0 0.0
2017-Dec-16 00:27N 34°09' E 135°12'0 0.1
2017-Dec-15 23:54N 34°09' E 135°12'1 1.9
2017-Dec-15 23:31N 34°09' E 135°11'1 2.8
2017-Dec-15 23:00N 34°09' E 135°10'0 0.0
2017-Dec-15 22:30N 34°09' E 135°10'0 0.0
2017-Dec-15 21:57N 34°09' E 135°10'0 0.1
2017-Dec-15 21:30N 34°09' E 135°10'0 0.0
2017-Dec-15 21:00N 34°09' E 135°10'2 5.0
2017-Dec-15 20:30N 34°09' E 135°07'612.6
2017-Dec-15 20:00N 34°05' E 135°01'613.0
2017-Dec-15 19:30N 33°58' E 135°02'99 8.2
2017-Dec-15 07:30N 34°40' E 136°51'813.1
2017-Dec-15 06:56N 34°46' E 136°46'512.9
2017-Dec-15 06:30N 34°51' E 136°43'612.5
2017-Dec-15 06:00N 34°57' E 136°40'1 2.6
2017-Dec-15 05:30N 34°56' E 136°39'0 0.0
2017-Dec-15 05:00N 34°56' E 136°39'0 0.1
2017-Dec-15 04:30N 34°56' E 136°39'0 0.1
2017-Dec-15 04:00N 34°56' E 136°39'0 0.0
2017-Dec-15 02:30N 34°56' E 136°39'0 0.0
2017-Dec-15 01:00N 34°56' E 136°39'1 2.3
2017-Dec-15 00:30N 34°57' E 136°40'24 4.0
2017-Dec-14 18:25N 34°37' E 136°56'611.3
2017-Dec-14 17:52N 34°33' E 137°03'612.0
2017-Dec-14 17:22N 34°33' E 137°10'411.8
2017-Dec-14 17:00N 34°34' E 137°15'2411.8
2017-Dec-14 14:55N 34°34' E 137°45'511.6
2017-Dec-14 14:28N 34°34' E 137°51'1511.5
2017-Dec-14 13:11N 34°33' E 138°09'211.3
2017-Dec-14 12:59N 34°33' E 138°12'611.8
2017-Dec-14 12:30N 34°33' E 138°19'712.1
2017-Dec-14 11:57N 34°34' E 138°27'712.0
2017-Dec-14 11:23N 34°35' E 138°35'512.2
2017-Dec-14 11:00N 34°35' E 138°41'611.1
2017-Dec-14 10:30N 34°35' E 138°47'611.8
2017-Dec-14 10:00N 34°36' E 138°55'611.2
2017-Dec-14 09:30N 34°39' E 139°00'611.5
2017-Dec-14 09:00N 34°42' E 139°06'510.7
2017-Dec-14 08:31N 34°45' E 139°11'611.4
2017-Dec-14 08:01N 34°49' E 139°16'611.6
2017-Dec-14 07:30N 34°53' E 139°22'712.0
2017-Dec-14 06:55N 34°57' E 139°28'511.5
2017-Dec-14 06:30N 35°01' E 139°32'611.7
2017-Dec-14 06:01N 35°05' E 139°38'612.2
2017-Dec-14 05:30N 35°09' E 139°43'611.7
2017-Dec-14 05:00N 35°14' E 139°46'612.3
2017-Dec-14 04:31N 35°19' E 139°43'611.4
2017-Dec-14 04:00N 35°25' E 139°44'612.4
2017-Dec-14 03:30N 35°29' E 139°50'612.4
2017-Dec-14 03:00N 35°32' E 139°57'611.8
2017-Dec-14 02:30N 35°35' E 140°03'2 3.8
2017-Dec-14 02:01N 35°36' E 140°05'0 0.0
2017-Dec-14 01:31N 35°36' E 140°05'0 0.1
2017-Dec-14 01:00N 35°36' E 140°05'0 0.1
2017-Dec-14 00:28N 35°36' E 140°05'0 0.0
2017-Dec-13 23:58N 35°36' E 140°05'0 0.0
2017-Dec-13 23:28N 35°36' E 140°05'0 0.6
2017-Dec-13 23:01N 35°36' E 140°05'3 6.6
2017-Dec-13 22:31N 35°35' E 140°01'0 0.1
2017-Dec-13 21:53N 35°35' E 140°01'0 0.0
2017-Dec-13 21:29N 35°35' E 140°01'0 0.1
2017-Dec-13 20:59N 35°35' E 140°01'0 0.1
2017-Dec-13 20:29N 35°35' E 140°01'0 0.0
2017-Dec-13 19:59N 35°35' E 140°01'0 0.1
2017-Dec-13 19:29N 35°35' E 140°01'0 0.0
2017-Dec-13 18:59N 35°35' E 140°01'0 0.0
2017-Dec-13 18:29N 35°35' E 140°01'0 0.0
2017-Dec-13 17:59N 35°35' E 140°01'0 0.0
2017-Dec-13 17:29N 35°35' E 140°01'0 0.0
2017-Dec-13 16:59N 35°35' E 140°01'0 0.0
2017-Dec-13 16:29N 35°35' E 140°01'0 0.0
2017-Dec-13 15:59N 35°35' E 140°01'0 0.0
2017-Dec-13 15:29N 35°35' E 140°01'0 0.0
2017-Dec-13 14:59N 35°35' E 140°01'0 0.0
2017-Dec-13 14:29N 35°35' E 140°01'0 0.0
2017-Dec-13 13:59N 35°35' E 140°01'0 0.0
2017-Dec-13 13:29N 35°35' E 140°01'0 0.0
2017-Dec-13 12:59N 35°35' E 140°01'0 0.0
2017-Dec-13 12:29N 35°35' E 140°01'0 0.0
2017-Dec-13 11:59N 35°35' E 140°01'0 0.0
2017-Dec-13 11:29N 35°35' E 140°01'0 0.0
2017-Dec-13 10:59N 35°35' E 140°01'0 0.0
2017-Dec-13 10:29N 35°35' E 140°01'0 0.0
2017-Dec-13 09:59N 35°35' E 140°01'0 0.0
2017-Dec-13 09:29N 35°35' E 140°01'0 0.0
2017-Dec-13 08:59N 35°35' E 140°01'0 0.0
2017-Dec-13 08:29N 35°35' E 140°01'0 0.0
2017-Dec-13 07:59N 35°35' E 140°01'0 0.0
2017-Dec-13 07:28N 35°35' E 140°01'3 6.8
2017-Dec-13 07:01N 35°32' E 139°60'4 2.9
2017-Dec-13 05:39N 35°28' E 140°01'0 0.0
2017-Dec-13 05:29N 35°28' E 140°01'0 0.0
2017-Dec-13 03:50N 35°28' E 140°01'0 0.0
2017-Dec-13 03:21N 35°28' E 140°01'2 4.4
2017-Dec-13 03:00N 35°30' E 140°00'612.6
2017-Dec-13 02:31N 35°35' E 140°04'1 1.8
2017-Dec-13 02:01N 35°36' E 140°05'0 0.0
2017-Dec-13 01:31N 35°36' E 140°05'0 0.0
2017-Dec-13 01:00N 35°36' E 140°05'0 0.0
2017-Dec-13 00:31N 35°36' E 140°05'0 0.0
2017-Dec-13 00:01N 35°36' E 140°05'0 0.0
2017-Dec-12 23:31N 35°36' E 140°05'0 0.8
2017-Dec-12 23:01N 35°36' E 140°04'1 1.1
2017-Dec-12 22:30N 35°36' E 140°04'0 0.0
2017-Dec-12 22:00N 35°36' E 140°04'0 0.0
2017-Dec-12 21:30N 35°36' E 140°04'0 0.8
2017-Dec-12 21:00N 35°36' E 140°04'2 3.4
2017-Dec-12 20:28N 35°36' E 140°06'0 0.0
2017-Dec-12 19:58N 35°36' E 140°06'0 0.0
2017-Dec-12 19:28N 35°36' E 140°06'0 0.0
2017-Dec-12 18:58N 35°36' E 140°06'0 0.0
2017-Dec-12 18:28N 35°36' E 140°06'0 0.0
2017-Dec-12 17:58N 35°36' E 140°06'0 0.0
2017-Dec-12 17:28N 35°36' E 140°06'0 0.0
2017-Dec-12 16:58N 35°36' E 140°06'0 0.0
2017-Dec-12 16:28N 35°36' E 140°06'0 0.0
2017-Dec-12 15:58N 35°36' E 140°06'0 0.0
2017-Dec-12 15:28N 35°36' E 140°06'0 0.0
2017-Dec-12 14:58N 35°36' E 140°06'0 0.0
2017-Dec-12 14:28N 35°36' E 140°06'0 0.0
2017-Dec-12 13:58N 35°36' E 140°06'0 0.0
2017-Dec-12 13:28N 35°36' E 140°06'0 0.0
2017-Dec-12 12:58N 35°36' E 140°06'0 0.0
2017-Dec-12 12:28N 35°36' E 140°06'0 0.0
2017-Dec-12 11:58N 35°36' E 140°06'0 0.0
2017-Dec-12 11:28N 35°36' E 140°06'0 0.0
2017-Dec-12 10:58N 35°36' E 140°06'0 0.0
2017-Dec-12 10:28N 35°36' E 140°06'0 0.0
2017-Dec-12 09:58N 35°36' E 140°06'0 0.0
2017-Dec-12 09:28N 35°36' E 140°06'0 0.0
2017-Dec-12 08:58N 35°36' E 140°06'0 0.0
2017-Dec-12 08:28N 35°36' E 140°06'0 0.0
2017-Dec-12 07:58N 35°36' E 140°06'0 0.0
2017-Dec-12 07:28N 35°36' E 140°06'0 0.0
2017-Dec-12 06:58N 35°36' E 140°06'0 0.0
2017-Dec-12 06:28N 35°36' E 140°06'0 0.0
2017-Dec-12 05:58N 35°36' E 140°06'0 0.0
2017-Dec-12 05:28N 35°36' E 140°06'0 0.0
2017-Dec-12 04:58N 35°36' E 140°06'0 0.0
2017-Dec-12 04:25N 35°36' E 140°06'0 0.0
2017-Dec-12 03:58N 35°36' E 140°06'0 0.0
2017-Dec-12 03:28N 35°36' E 140°06'0 0.0
2017-Dec-12 02:55N 35°36' E 140°06'0 0.0
2017-Dec-12 02:28N 35°36' E 140°06'0 0.0
2017-Dec-12 01:58N 35°36' E 140°06'0 0.0
2017-Dec-12 01:28N 35°36' E 140°06'0 0.0
2017-Dec-12 01:01N 35°36' E 140°06'0 0.0
2017-Dec-12 00:30N 35°36' E 140°06'0 0.0
2017-Dec-12 00:00N 35°36' E 140°06'0 0.0
2017-Dec-11 23:31N 35°36' E 140°06'0 0.0
2017-Dec-11 23:00N 35°36' E 140°06'0 0.0
2017-Dec-11 22:31N 35°36' E 140°06'0 0.0
2017-Dec-11 22:01N 35°36' E 140°06'0 0.0
2017-Dec-11 21:31N 35°36' E 140°06'0 0.0
2017-Dec-11 21:00N 35°36' E 140°06'0 0.0
2017-Dec-11 20:30N 35°36' E 140°06'0 0.0
2017-Dec-11 20:00N 35°36' E 140°06'0 0.0
2017-Dec-11 19:30N 35°36' E 140°06'0 0.0
2017-Dec-11 19:00N 35°36' E 140°06'0 0.0
2017-Dec-11 18:30N 35°36' E 140°06'0 0.0
2017-Dec-11 18:00N 35°36' E 140°06'0 0.0
2017-Dec-11 17:31N 35°36' E 140°06'0 0.0
2017-Dec-11 17:00N 35°36' E 140°06'0 0.0
2017-Dec-11 16:31N 35°36' E 140°06'0 0.0
2017-Dec-11 16:00N 35°36' E 140°06'0 0.0
2017-Dec-11 15:31N 35°36' E 140°06'0 0.0
2017-Dec-11 15:01N 35°36' E 140°06'0 0.0
2017-Dec-11 14:30N 35°36' E 140°06'0 0.0
2017-Dec-11 14:01N 35°36' E 140°06'0 0.0
2017-Dec-11 13:31N 35°36' E 140°06'0 0.0
2017-Dec-11 13:01N 35°36' E 140°06'0 0.0
2017-Dec-11 12:31N 35°36' E 140°06'0 0.0
2017-Dec-11 12:01N 35°36' E 140°06'0 0.0
2017-Dec-11 11:30N 35°36' E 140°06'0 0.0
2017-Dec-11 11:00N 35°36' E 140°06'0 0.0
2017-Dec-11 10:31N 35°36' E 140°06'0 0.0
2017-Dec-11 10:01N 35°36' E 140°06'0 0.0
2017-Dec-11 09:31N 35°36' E 140°06'0 0.0
2017-Dec-11 09:01N 35°36' E 140°06'0 0.0
2017-Dec-11 08:31N 35°36' E 140°06'0 0.0
2017-Dec-11 08:00N 35°36' E 140°06'0 0.0
2017-Dec-11 07:31N 35°36' E 140°06'0 0.0
2017-Dec-11 07:01N 35°36' E 140°06'0 0.0
2017-Dec-11 06:30N 35°36' E 140°06'0 0.0
2017-Dec-11 06:01N 35°36' E 140°06'0 0.0
2017-Dec-11 05:30N 35°36' E 140°06'0 0.0
2017-Dec-11 05:01N 35°36' E 140°06'2 3.2
2017-Dec-11 04:31N 35°35' E 140°04'510.3
2017-Dec-11 04:00N 35°32' E 139°60'612.4
2017-Dec-11 03:30N 35°29' E 139°53'612.8
2017-Dec-11 03:00N 35°26' E 139°46'611.1
2017-Dec-11 02:31N 35°24' E 139°40'0 0.5
2017-Dec-11 02:01N 35°24' E 139°40'0 0.0
2017-Dec-11 01:30N 35°24' E 139°40'0 0.0
2017-Dec-11 01:00N 35°24' E 139°40'0 0.0
2017-Dec-11 00:30N 35°24' E 139°40'0 0.0
2017-Dec-11 00:00N 35°24' E 139°40'0 0.0
2017-Dec-10 23:30N 35°24' E 139°40'2 3.8
2017-Dec-10 23:00N 35°23' E 139°40'0 0.5
2017-Dec-10 22:29N 35°22' E 139°40'0 0.1
2017-Dec-10 21:56N 35°22' E 139°40'0 0.0
2017-Dec-10 21:26N 35°22' E 139°40'0 0.0
2017-Dec-10 20:59N 35°22' E 139°40'0 0.0
2017-Dec-10 20:29N 35°22' E 139°40'0 0.1
2017-Dec-10 19:59N 35°22' E 139°40'0 0.1
2017-Dec-10 19:29N 35°22' E 139°40'0 0.0
2017-Dec-10 18:59N 35°22' E 139°40'0 0.1
2017-Dec-10 18:30N 35°22' E 139°40'5 9.6
2017-Dec-10 18:01N 35°19' E 139°44'510.8
2017-Dec-10 17:30N 35°14' E 139°47'611.7
2017-Dec-10 17:00N 35°08' E 139°45'611.9
2017-Dec-10 16:30N 35°03' E 139°41'612.5
2017-Dec-10 16:00N 34°59' E 139°35'813.9
2017-Dec-10 15:26N 34°55' E 139°27'614.1
2017-Dec-10 15:00N 34°51' E 139°21'713.4
2017-Dec-10 14:29N 34°46' E 139°15'712.6
2017-Dec-10 13:53N 34°41' E 139°08'411.3
2017-Dec-10 13:30N 34°39' E 139°04'611.9
2017-Dec-10 13:00N 34°36' E 138°58'712.6
2017-Dec-10 12:29N 34°35' E 138°50'712.3
2017-Dec-10 11:55N 34°34' E 138°41'1512.5
2017-Dec-10 10:44N 34°33' E 138°23'612.3
2017-Dec-10 10:16N 34°33' E 138°16'613.0
2017-Dec-10 09:49N 34°33' E 138°09'16110.4
2017-Dec-09 18:13N 33°53' E 134°60'412.3
2017-Dec-09 17:55N 33°56' E 134°57'612.6
2017-Dec-09 17:28N 34°01' E 134°53'612.6
2017-Dec-09 17:00N 34°05' E 134°48'712.7
2017-Dec-09 16:29N 34°10' E 134°43'611.6
2017-Dec-09 15:59N 34°15' E 134°39'511.5
2017-Dec-09 15:30N 34°17' E 134°33'611.1
2017-Dec-09 14:58N 34°19' E 134°26'1310.7
2017-Dec-09 13:48N 34°24' E 134°12'7610.8
2017-Dec-09 06:48N 34°00' E 132°45'412.8
2017-Dec-09 06:30N 33°57' E 132°43'6 1.6
2017-Dec-09 02:59N 33°51' E 132°42'0 0.0
2017-Dec-09 02:16N 33°51' E 132°42'0 0.0
2017-Dec-09 02:00N 33°51' E 132°42'0 0.0
2017-Dec-09 00:35N 33°51' E 132°42'0 0.0
2017-Dec-09 00:28N 33°51' E 132°42'0 0.0
2017-Dec-08 23:42N 33°51' E 132°42'0 0.0
2017-Dec-08 23:25N 33°51' E 132°42'1 2.9
2017-Dec-08 23:00N 33°52' E 132°41'1 0.8
2017-Dec-08 21:39N 33°52' E 132°40'0 0.0
2017-Dec-08 21:27N 33°52' E 132°40'0 0.0
2017-Dec-08 19:06N 33°52' E 132°40'0 0.0
2017-Dec-08 18:57N 33°52' E 132°40'0 0.0
2017-Dec-08 09:51N 33°52' E 132°40'0 0.0
2017-Dec-08 05:37N 33°52' E 132°40'0 0.2
2017-Dec-08 05:31N 33°52' E 132°40'3 7.0
2017-Dec-08 05:00N 33°55' E 132°42'611.3
2017-Dec-08 04:30N 33°60' E 132°45'5 1.0
2017-Dec-07 23:04N 34°03' E 132°50'0 0.1
2017-Dec-07 23:00N 34°03' E 132°50'79 5.9
2017-Dec-07 09:33N 34°22' E 134°23'111.7
2017-Dec-07 09:29N 34°22' E 134°23'712.3
2017-Dec-07 08:57N 34°19' E 134°31'613.0
2017-Dec-07 08:28N 34°16' E 134°38'511.0
2017-Dec-07 07:59N 34°12' E 134°42'3 6.0
2017-Dec-07 07:27N 34°10' E 134°45'3 6.4
2017-Dec-07 07:00N 34°09' E 134°48'4 8.8
2017-Dec-07 06:31N 34°09' E 134°53'5 9.2
2017-Dec-07 06:00N 34°09' E 134°58'5 9.0
2017-Dec-07 05:30N 34°09' E 135°04'510.3
2017-Dec-07 05:00N 34°09' E 135°10'2 3.2
2017-Dec-07 04:30N 34°09' E 135°12'0 0.0
2017-Dec-07 04:00N 34°09' E 135°12'0 0.0
2017-Dec-07 03:30N 34°09' E 135°12'0 0.0
2017-Dec-07 03:00N 34°09' E 135°12'0 0.0
2017-Dec-07 02:30N 34°09' E 135°12'0 0.6
2017-Dec-07 02:00N 34°09' E 135°12'1 1.4
2017-Dec-07 01:30N 34°09' E 135°11'5 9.7
2017-Dec-07 01:00N 34°12' E 135°07'1 2.6
2017-Dec-07 00:30N 34°13' E 135°09'0 0.0
2017-Dec-07 00:00N 34°13' E 135°09'0 0.0
2017-Dec-06 23:31N 34°13' E 135°09'0 0.0
2017-Dec-06 23:00N 34°13' E 135°09'0 0.0
2017-Dec-06 22:30N 34°13' E 135°09'0 0.0
2017-Dec-06 22:01N 34°13' E 135°09'0 0.0
2017-Dec-06 21:30N 34°13' E 135°09'0 0.0
2017-Dec-06 21:00N 34°13' E 135°09'  

Dump ship's entire track history